OMRK/RKT METAR and TAF weather

Enter ICAO airport designator
Station Type Date Time Source
OMRK METAR 2018/12/13 07:00 UTC NOAA

OMRK 130700Z 28002KT CAVOK 25/15 Q1021 A3017


Station Type Date Time Source
OMRK Decoded METAR 2018/12/13 07:00 UTC NOAA

Ras Al Khaimah International Airport, United Arab Emirates (OMRK) 25-37N 055-56E 31M
Dec 13, 2018 - 02:00 AM EST / 2018.12.13 0700 UTC
Wind: from the W (280 degrees) at 2 MPH (2 KT):0
Visibility: greater than 7 mile(s):0
Temperature: 77 F (25 C)
Dew Point: 59 F (15 C)
Relative Humidity: 53%
Pressure (altimeter): 30.17 in. Hg (1021 hPa)
ob: OMRK 130700Z 28002KT CAVOK 25/15 Q1021 A3017
cycle: 7

Station Type Date Time Source
OMRK TAF 2018/12/13 06:03 UTC NOAA

TAF OMRK 130459Z 1306/1412 20005KT 8000 NSC
BECMG 1309/1311 35010KT
BECMG 1314/1316 VRB02KT PROB30 1400/1405 3000 HZ
BECMG 1408/1410 35010KT


Example: see airport list